Time;durP1;ratioP1;P1;durP2;ratioP2;P2;SDS_P1;SDS_P2;PMS_P1;PMS_P2;Temp;Humidity;BMP_temperature;BMP_pressure;BME280_temperature;BME280_humidity;BME280_pressure;Samples;Min_cycle;Max_cycle;Signal;HPM_P1;HPM_P2
2022/09/14 00:00:57;;;;;;;5.80;4.77;;;;;;;16.44;100.00;98642.94;4921205;29;20234;-87
2022/09/14 00:03:44;;;;;;;5.63;5.13;;;;;;;16.40;100.00;98647.28;4909809;29;20230;-90
2022/09/14 00:06:14;;;;;;;5.50;5.00;;;;;;;16.40;100.00;98636.47;4932588;29;20241;-91
2022/09/14 00:08:42;;;;;;;5.50;5.00;;;;;;;16.42;100.00;98633.50;4915226;29;20230;-91
2022/09/14 00:11:13;;;;;;;5.43;4.90;;;;;;;16.41;100.00;98634.59;4913124;29;20237;-90
2022/09/14 00:13:45;;;;;;;5.27;4.77;;;;;;;16.40;100.00;98630.25;4909571;29;20299;-90
2022/09/14 00:16:14;;;;;;;5.90;5.20;;;;;;;16.38;100.00;98635.94;4902658;29;20238;-89
2022/09/14 00:18:41;;;;;;;5.07;4.63;;;;;;;16.34;100.00;98615.16;4918031;29;20234;-88
2022/09/14 00:21:10;;;;;;;6.57;5.90;;;;;;;16.43;100.00;98619.69;4936030;29;20245;-88
2022/09/14 00:23:39;;;;;;;7.00;5.30;;;;;;;16.40;100.00;98620.25;4918398;29;20230;-89
2022/09/14 00:26:09;;;;;;;5.60;5.10;;;;;;;16.40;100.00;98608.63;4917711;29;20234;-91
2022/09/14 00:28:37;;;;;;;6.00;5.40;;;;;;;16.40;100.00;98609.44;4922722;29;20226;-90
2022/09/14 00:31:05;;;;;;;5.83;5.27;;;;;;;16.39;100.00;98610.53;4921004;29;20234;-89
2022/09/14 00:33:33;;;;;;;6.17;5.20;;;;;;;16.41;100.00;98613.78;4925432;29;20240;-89
2022/09/14 00:36:11;;;;;;;6.17;5.57;;;;;;;16.39;100.00;98605.13;4929193;29;20241;-89
2022/09/14 00:38:38;;;;;;;5.50;5.00;;;;;;;16.35;100.00;98608.66;4910828;29;20317;-89
2022/09/14 00:41:07;;;;;;;5.90;5.20;;;;;;;16.30;100.00;98607.63;4902037;29;20246;-90
2022/09/14 00:43:53;;;;;;;6.07;4.97;;;;;;;16.27;100.00;98608.19;4925698;29;20710;-89
2022/09/14 00:46:20;;;;;;;5.43;4.93;;;;;;;16.31;100.00;98605.72;4917502;29;20725;-88
2022/09/14 00:48:47;;;;;;;5.17;4.77;;;;;;;16.26;100.00;98613.88;4921958;29;20230;-89
2022/09/14 00:51:16;;;;;;;5.70;5.20;;;;;;;16.18;100.00;98609.06;4927135;29;20261;-90
2022/09/14 00:53:42;;;;;;;5.20;4.70;;;;;;;16.09;100.00;98606.16;4902972;29;20246;-90
2022/09/14 00:56:09;;;;;;;6.53;5.47;;;;;;;16.05;100.00;98598.91;4907373;29;20240;-90
2022/09/14 00:58:37;;;;;;;6.17;5.57;;;;;;;16.01;100.00;98606.72;4926027;29;20245;-90
2022/09/14 01:01:03;;;;;;;5.30;4.90;;;;;;;15.97;100.00;98604.88;4918111;29;20252;-90
2022/09/14 01:03:30;;;;;;;6.20;5.43;;;;;;;15.83;100.00;98600.06;4930549;29;20309;-91
2022/09/14 01:05:57;;;;;;;5.40;5.00;;;;;;;15.81;100.00;98601.47;4897310;29;20237;-90
2022/09/14 01:08:30;;;;;;;5.90;5.40;;;;;;;15.73;100.00;98591.22;4890884;29;20230;-89
2022/09/14 01:11:22;;;;;;;5.73;5.23;;;;;;;15.70;100.00;98598.00;4919873;29;20322;-90
2022/09/14 01:14:02;;;;;;;5.50;5.00;;;;;;;15.70;100.00;98602.59;4922707;29;20233;-90
2022/09/14 01:16:29;;;;;;;5.13;4.67;;;;;;;15.65;100.00;98594.50;4910777;29;20265;-90
2022/09/14 01:18:58;;;;;;;6.30;5.20;;;;;;;15.59;100.00;98593.72;4922392;29;20256;-89
2022/09/14 01:21:30;;;;;;;5.60;5.03;;;;;;;15.57;100.00;98590.50;4906488;29;20324;-90
2022/09/14 01:24:06;;;;;;;6.20;5.60;;;;;;;15.51;100.00;98594.28;4901056;29;20284;-90
2022/09/14 01:27:14;;;;;;;5.97;5.37;;;;;;;15.47;100.00;98587.81;4921322;29;20239;-90
2022/09/14 01:29:50;;;;;;;6.40;5.80;;;;;;;15.40;100.00;98593.50;4927552;29;20328;-88
2022/09/14 01:32:25;;;;;;;5.33;4.83;;;;;;;15.38;100.00;98595.66;4920336;29;20282;-88
2022/09/14 01:35:15;;;;;;;7.40;5.60;;;;;;;15.36;100.00;98586.22;4905904;29;20337;-89
2022/09/14 01:37:46;;;;;;;5.80;5.33;;;;;;;15.35;100.00;98587.31;4903934;29;20238;-91
2022/09/14 01:40:15;;;;;;;6.77;5.43;;;;;;;15.34;100.00;98586.50;4915663;29;20239;-93
2022/09/14 01:42:47;;;;;;;6.43;5.77;;;;;;;15.27;100.00;98583.28;4910522;29;20230;-93
2022/09/14 01:45:17;;;;;;;5.50;5.00;;;;;;;15.24;100.00;98586.53;4901555;29;20234;-94
2022/09/14 01:47:48;;;;;;;5.57;5.07;;;;;;;15.28;100.00;98593.00;4914024;29;20329;-94
2022/09/14 01:50:32;;;;;;;5.60;5.10;;;;;;;15.26;100.00;98591.66;4903117;29;20263;-94
2022/09/14 01:53:05;;;;;;;6.40;5.40;;;;;;;15.25;100.00;98598.16;4881714;29;20266;-93
2022/09/14 01:55:37;;;;;;;5.90;5.40;;;;;;;15.27;100.00;98599.47;4900927;29;20242;-93
2022/09/14 01:58:08;;;;;;;6.33;5.80;;;;;;;15.26;100.00;98594.34;4916356;29;20234;-93
2022/09/14 02:00:38;;;;;;;6.47;5.53;;;;;;;15.25;100.00;98581.97;4902319;29;20233;-93
2022/09/14 02:03:11;;;;;;;6.27;5.77;;;;;;;15.30;100.00;98580.03;4901405;29;20223;-94
2022/09/14 02:05:43;;;;;;;6.60;6.00;;;;;;;15.29;100.00;98583.84;4892740;29;20290;-93
2022/09/14 02:08:10;;;;;;;5.80;5.30;;;;;;;15.25;100.00;98592.75;4906336;29;20744;-94
2022/09/14 02:10:37;;;;;;;6.33;5.73;;;;;;;15.28;100.00;98576.81;4936218;29;20715;-93
2022/09/14 02:13:05;;;;;;;5.87;5.47;;;;;;;15.29;100.00;98583.03;4922627;29;20237;-94
2022/09/14 02:15:34;;;;;;;7.23;5.73;;;;;;;15.30;100.00;98585.44;4926733;29;20227;-94
2022/09/14 02:18:02;;;;;;;6.00;5.50;;;;;;;15.33;100.00;98578.69;4886034;29;20235;-91
2022/09/14 02:20:46;;;;;;;6.10;5.60;;;;;;;15.34;100.00;98573.03;4901397;29;20231;-91
2022/09/14 02:23:13;;;;;;;6.10;5.60;;;;;;;15.38;100.00;98573.28;4901656;29;20258;-91
2022/09/14 02:25:40;;;;;;;6.20;5.60;;;;;;;15.37;100.00;98574.34;4901675;29;20243;-91
2022/09/14 02:28:07;;;;;;;6.30;5.70;;;;;;;15.36;100.00;98565.44;4916594;29;20226;-91
2022/09/14 02:31:01;;;;;;;6.07;5.37;;;;;;;15.39;100.00;98566.78;4920503;29;20234;-91
2022/09/14 02:33:48;;;;;;;6.30;5.80;;;;;;;15.38;100.00;98554.38;4920066;29;20229;-89
2022/09/14 02:36:23;;;;;;;7.90;5.40;;;;;;;15.39;100.00;98548.72;4920525;29;20242;-89
2022/09/14 02:39:32;;;;;;;6.07;5.57;;;;;;;15.38;100.00;98539.00;4892807;29;20241;-90
2022/09/14 02:42:37;;;;;;;5.40;4.90;;;;;;;15.31;100.00;98545.75;4901878;29;20246;-89
2022/09/14 02:45:20;;;;;;;5.40;5.00;;;;;;;15.26;100.00;98537.69;4900878;29;20257;-90
2022/09/14 02:48:02;;;;;;;6.10;5.50;;;;;;;15.28;100.00;98541.72;4925962;29;20240;-90
2022/09/14 02:51:05;;;;;;;9.40;5.50;;;;;;;15.28;100.00;98549.03;4938625;29;20230;-90
2022/09/14 02:53:38;;;;;;;6.43;5.33;;;;;;;15.28;100.00;98543.63;4921508;29;20229;-93
2022/09/14 02:56:07;;;;;;;5.63;5.23;;;;;;;15.28;100.00;98543.63;4938299;29;20241;-89
2022/09/14 02:58:39;;;;;;;5.60;5.10;;;;;;;15.29;100.00;98539.84;4917059;29;20230;-89
2022/09/14 03:01:08;;;;;;;8.20;5.33;;;;;;;15.28;100.00;98539.03;4900532;29;20266;-90
2022/09/14 03:03:35;;;;;;;5.93;5.43;;;;;;;15.28;100.00;98540.91;4916533;29;20720;-89
2022/09/14 03:06:02;;;;;;;5.57;5.10;;;;;;;15.30;100.00;98533.38;4915756;29;20295;-89
2022/09/14 03:08:29;;;;;;;6.53;5.87;;;;;;;15.37;100.00;98537.38;4906958;29;20243;-89
2022/09/14 03:10:56;;;;;;;6.03;5.47;;;;;;;15.28;100.00;98539.03;4900607;29;20702;-88
2022/09/14 03:13:23;;;;;;;5.73;5.23;;;;;;;15.25;100.00;98536.91;4900563;29;20235;-91
2022/09/14 03:15:50;;;;;;;6.00;5.30;;;;;;;15.26;100.00;98538.50;4916287;29;20310;-91
2022/09/14 03:18:17;;;;;;;6.20;5.70;;;;;;;15.23;100.00;98541.75;4869335;29;20235;-90
2022/09/14 03:20:44;;;;;;;5.90;5.40;;;;;;;15.26;100.00;98541.19;4886474;29;20239;-92
2022/09/14 03:23:11;;;;;;;6.00;5.50;;;;;;;15.29;100.00;98537.16;4914431;29;20233;-92
2022/09/14 03:25:42;;;;;;;6.67;5.60;;;;;;;15.26;100.00;98533.09;4906902;29;20217;-92
2022/09/14 03:28:10;;;;;;;6.00;5.50;;;;;;;15.26;100.00;98521.50;4922169;29;20226;-94
2022/09/14 03:30:36;;;;;;;6.03;5.43;;;;;;;15.22;100.00;98529.34;4919545;29;20306;-94
2022/09/14 03:33:03;;;;;;;5.93;5.47;;;;;;;15.20;100.00;98526.13;4925520;29;20226;-89
2022/09/14 03:35:31;;;;;;;5.77;5.37;;;;;;;15.21;100.00;98527.72;4921941;29;20611;-88
2022/09/14 03:37:58;;;;;;;6.70;6.10;;;;;;;15.25;100.00;98525.28;4908758;29;20237;-88
2022/09/14 03:40:26;;;;;;;6.00;5.40;;;;;;;15.24;100.00;98520.97;4902158;29;20265;-90
2022/09/14 03:42:53;;;;;;;6.03;5.53;;;;;;;15.24;100.00;98531.78;4908896;29;20230;-90
2022/09/14 03:45:20;;;;;;;5.77;5.30;;;;;;;15.29;100.00;98527.16;4919080;29;20619;-89
2022/09/14 03:47:47;;;;;;;6.27;5.77;;;;;;;15.25;100.00;98526.09;4926526;29;20238;-89
2022/09/14 03:50:15;;;;;;;6.17;5.60;;;;;;;15.26;100.00;98521.50;4921405;29;20242;-90
2022/09/14 03:52:42;;;;;;;5.70;5.27;;;;;;;15.29;100.00;98531.75;4911108;29;20236;-90
2022/09/14 03:55:09;;;;;;;6.10;5.50;;;;;;;15.29;100.00;98531.75;4914643;29;20234;-90
2022/09/14 03:57:37;;;;;;;6.10;5.60;;;;;;;15.28;100.00;98546.31;4907723;29;20274;-90
2022/09/14 04:00:06;;;;;;;5.87;5.10;;;;;;;15.28;100.00;98533.63;4933861;29;20262;-90
2022/09/14 04:02:36;;;;;;;6.90;5.90;;;;;;;15.31;100.00;98532.25;4925263;29;20233;-89
2022/09/14 04:05:03;;;;;;;5.93;5.40;;;;;;;15.35;100.00;98531.44;4911669;29;20316;-90
2022/09/14 04:07:30;;;;;;;5.57;5.07;;;;;;;15.32;100.00;98525.78;4893054;29;20234;-90
2022/09/14 04:09:57;;;;;;;5.53;5.10;;;;;;;15.36;100.00;98532.25;4910571;29;20238;-90
2022/09/14 04:12:24;;;;;;;6.10;5.53;;;;;;;15.39;100.00;98535.22;4907024;29;21000;-90
2022/09/14 04:14:50;;;;;;;5.90;5.37;;;;;;;15.35;100.00;98538.75;4921133;29;20321;-90
2022/09/14 04:17:17;;;;;;;5.80;5.10;;;;;;;15.41;100.00;98538.44;4908635;29;20230;-90
2022/09/14 04:19:44;;;;;;;5.93;5.43;;;;;;;15.37;100.00;98537.38;4907281;29;20249;-90
2022/09/14 04:22:10;;;;;;;5.40;5.00;;;;;;;15.39;100.00;98543.31;4934535;29;20245;-90
2022/09/14 04:24:37;;;;;;;5.90;5.20;;;;;;;15.39;100.00;98543.31;4902671;29;20244;-91
2022/09/14 04:27:04;;;;;;;5.63;5.13;;;;;;;15.40;100.00;98546.78;4901750;29;20245;-91
2022/09/14 04:29:30;;;;;;;5.20;4.80;;;;;;;15.41;100.00;98540.31;4902812;29;20241;-91
2022/09/14 04:31:57;;;;;;;5.27;4.87;;;;;;;15.47;100.00;98541.91;4915958;29;20230;-91
2022/09/14 04:34:24;;;;;;;5.90;5.40;;;;;;;15.52;100.00;98541.94;4916819;29;20920;-91
2022/09/14 04:36:51;;;;;;;5.87;5.37;;;;;;;15.47;100.00;98543.81;4920308;29;20226;-91
2022/09/14 04:39:17;;;;;;;5.97;5.37;;;;;;;15.47;100.00;98535.72;4911810;29;20230;-91
2022/09/14 04:41:45;;;;;;;7.73;6.30;;;;;;;15.55;100.00;98525.16;4910807;29;20233;-91
2022/09/14 04:44:11;;;;;;;5.73;5.33;;;;;;;15.55;100.00;98521.66;4911721;29;20233;-92
2022/09/14 04:46:40;;;;;;;6.67;5.57;;;;;;;15.57;100.00;98520.31;4908780;29;20227;-92
2022/09/14 04:49:13;;;;;;;7.00;5.80;;;;;;;15.59;100.00;98515.41;4926338;29;20298;-91
2022/09/14 04:51:40;;;;;;;5.90;5.40;;;;;;;15.64;100.00;98510.00;4925353;29;20235;-91
2022/09/14 04:54:07;;;;;;;5.97;5.47;;;;;;;15.73;100.00;98478.63;4924572;29;20701;-92
2022/09/14 04:56:35;;;;;;;5.97;5.40;;;;;;;15.77;100.00;98481.59;4901759;29;20225;-90
2022/09/14 04:59:03;;;;;;;5.87;5.30;;;;;;;15.76;100.00;98469.97;4907059;29;20330;-90
2022/09/14 05:01:33;;;;;;;6.10;5.53;;;;;;;15.85;100.00;98492.59;4916575;29;20317;-90
2022/09/14 05:04:00;;;;;;;6.30;5.77;;;;;;;15.91;100.00;98490.63;4910351;29;20230;-90
2022/09/14 05:06:30;;;;;;;6.47;5.87;;;;;;;15.99;100.00;98494.66;4902183;29;20230;-90
2022/09/14 05:08:58;;;;;;;6.60;6.00;;;;;;;16.04;100.00;98500.00;4905995;29;20238;-91
2022/09/14 05:11:28;;;;;;;6.13;5.53;;;;;;;16.12;100.00;98508.31;4925310;29;20234;-88
2022/09/14 05:13:56;;;;;;;6.33;5.83;;;;;;;16.21;100.00;98520.13;4916686;29;20707;-88
2022/09/14 05:16:34;;;;;;;6.27;5.57;;;;;;;16.25;100.00;98523.06;4916692;29;20234;-87
2022/09/14 05:19:03;;;;;;;5.93;5.43;;;;;;;16.30;100.00;98521.13;4916559;29;20309;-88
2022/09/14 05:21:31;;;;;;;6.20;5.60;;;;;;;16.37;100.00;98523.53;4932169;29;20226;-87
2022/09/14 05:24:00;;;;;;;7.27;5.50;;;;;;;16.46;100.00;98521.81;4916907;29;20253;-88
2022/09/14 05:26:29;;;;;;;6.13;5.63;;;;;;;16.50;100.00;98528.28;4915880;29;20298;-87
2022/09/14 05:28:57;;;;;;;6.10;5.43;;;;;;;16.50;100.00;98528.28;4917627;29;20230;-88
2022/09/14 05:31:25;;;;;;;5.60;5.13;;;;;;;16.43;100.00;98532.38;4885553;29;20238;-88
2022/09/14 05:33:52;;;;;;;5.87;5.37;;;;;;;16.43;100.00;98530.47;4901756;29;20309;-88
2022/09/14 05:36:20;;;;;;;6.17;5.53;;;;;;;16.45;100.00;98533.72;4902111;29;20239;-88
2022/09/14 05:38:47;;;;;;;6.03;5.53;;;;;;;16.54;100.00;98529.31;4882330;29;20244;-88
2022/09/14 05:41:14;;;;;;;6.90;5.10;;;;;;;16.54;100.00;98526.59;4866758;29;20241;-88
2022/09/14 05:43:41;;;;;;;6.03;5.43;;;;;;;16.61;100.00;98521.69;4882117;29;20246;-88
2022/09/14 05:46:21;;;;;;;5.80;5.30;;;;;;;16.58;100.00;98505.22;4881859;29;20223;-88
2022/09/14 05:48:50;;;;;;;5.73;5.23;;;;;;;16.52;100.00;98485.50;4882550;29;20238;-89
2022/09/14 05:51:20;;;;;;;6.27;5.67;;;;;;;16.52;100.00;98480.09;4882266;29;20239;-88
2022/09/14 05:53:54;;;;;;;6.00;5.50;;;;;;;16.58;100.00;98472.78;4882087;29;20243;-87
2022/09/14 05:56:22;;;;;;;6.13;5.03;;;;;;;16.68;100.00;98468.09;4897082;29;20297;-88
2022/09/14 05:58:49;;;;;;;7.03;6.30;;;;;;;16.79;100.00;98466.09;4897954;29;20334;-87
2022/09/14 06:01:25;;;;;;;10.07;6.27;;;;;;;16.87;100.00;98459.22;4866896;29;20234;-88
2022/09/14 06:03:53;;;;;;;14.83;6.23;;;;;;;16.96;100.00;98457.47;4866099;29;20299;-88
2022/09/14 06:06:21;;;;;;;12.40;5.77;;;;;;;17.16;100.00;98470.78;4908388;29;20252;-89
2022/09/14 06:08:51;;;;;;;12.00;5.70;;;;;;;17.33;100.00;98468.38;4910906;29;20268;-88
2022/09/14 06:11:21;;;;;;;9.13;5.47;;;;;;;17.57;100.00;98460.19;4895458;29;20234;-87
2022/09/14 06:13:48;;;;;;;6.50;5.80;;;;;;;17.77;100.00;98478.09;4910649;29;20234;-87
2022/09/14 06:16:19;;;;;;;7.63;5.60;;;;;;;17.87;100.00;98499.63;4912041;29;20230;-87
2022/09/14 06:18:46;;;;;;;6.10;5.60;;;;;;;18.01;100.00;98500.44;4900309;29;20754;-88
2022/09/14 06:21:15;;;;;;;6.40;5.80;;;;;;;18.17;100.00;98496.41;4900077;29;20252;-88
2022/09/14 06:23:42;;;;;;;5.80;5.30;;;;;;;18.30;100.00;98505.69;4922991;29;20234;-90
2022/09/14 06:26:09;;;;;;;6.90;5.03;;;;;;;18.53;100.00;98512.91;4902713;29;20729;-90
2022/09/14 06:28:37;;;;;;;5.57;4.93;;;;;;;18.68;100.00;98522.69;4900520;29;20238;-90
2022/09/14 06:31:06;;;;;;;5.77;5.20;;;;;;;18.77;100.00;98513.56;4914306;29;20353;-86
2022/09/14 06:33:34;;;;;;;6.40;5.80;;;;;;;18.90;100.00;98514.66;4902260;29;20238;-89
2022/09/14 06:36:08;;;;;;;6.20;5.40;;;;;;;18.95;100.00;98517.28;4916463;29;20231;-88
2022/09/14 06:38:35;;;;;;;5.97;5.47;;;;;;;19.03;100.00;98515.78;4899526;29;20303;-87
2022/09/14 06:41:05;;;;;;;6.00;5.47;;;;;;;19.04;100.00;98517.38;4917674;29;20227;-86
2022/09/14 06:43:34;;;;;;;6.17;5.67;;;;;;;19.10;100.00;98510.75;4933372;29;20263;-86
2022/09/14 06:46:03;;;;;;;8.67;5.30;;;;;;;19.12;100.00;98512.06;4909680;29;20247;-86
2022/09/14 06:48:33;;;;;;;5.93;5.33;;;;;;;19.13;100.00;98504.75;4911166;29;20243;-87
2022/09/14 06:51:00;;;;;;;5.77;5.17;;;;;;;19.20;100.00;98513.28;4919107;29;20327;-87
2022/09/14 06:53:27;;;;;;;5.43;5.03;;;;;;;19.16;100.00;98510.38;4925831;29;20253;-87
2022/09/14 06:55:58;;;;;;;5.70;5.20;;;;;;;19.12;100.00;98511.28;4919221;29;20701;-89
2022/09/14 06:58:24;;;;;;;6.73;5.43;;;;;;;19.09;100.00;98509.13;4901638;29;20263;-87
2022/09/14 07:00:51;;;;;;;6.73;5.10;;;;;;;19.14;100.00;98500.91;4922446;29;20232;-86
2022/09/14 07:03:18;;;;;;;5.60;5.10;;;;;;;19.25;100.00;98508.53;4901668;29;20259;-86
2022/09/14 07:05:44;;;;;;;6.90;5.73;;;;;;;19.42;100.00;98509.81;4917034;29;20240;-86
2022/09/14 07:08:11;;;;;;;5.90;5.40;;;;;;;19.62;100.00;98510.22;4924448;29;20771;-86
2022/09/14 07:10:38;;;;;;;6.70;5.13;;;;;;;19.83;100.00;98513.28;4930712;29;20244;-88
2022/09/14 07:13:04;;;;;;;5.97;5.47;;;;;;;20.01;100.00;98512.34;4909828;29;20247;-86
2022/09/14 07:15:32;;;;;;;5.90;5.30;;;;;;;20.21;100.00;98511.03;4925629;29;20236;-86
2022/09/14 07:17:58;;;;;;;5.47;5.07;;;;;;;20.50;100.00;98516.84;4935746;29;20293;-87
2022/09/14 07:20:25;;;;;;;6.57;5.33;;;;;;;20.77;100.00;98512.34;4908852;29;20711;-86
2022/09/14 07:22:52;;;;;;;5.20;4.70;;;;;;;21.13;100.00;98515.75;4922454;29;20242;-87
2022/09/14 07:25:18;;;;;;;5.90;5.30;;;;;;;21.39;99.79;98513.91;4918374;29;20253;-87
2022/09/14 07:27:45;;;;;;;5.90;5.40;;;;;;;21.62;96.41;98522.78;4922364;29;20244;-84
2022/09/14 07:30:11;;;;;;;5.47;4.83;;;;;;;21.81;93.40;98522.47;4925389;29;20232;-84
2022/09/14 07:32:38;;;;;;;5.40;4.90;;;;;;;21.99;93.95;98523.31;4924005;29;20237;-84
2022/09/14 07:35:05;;;;;;;5.40;4.90;;;;;;;22.11;90.33;98527.03;4927971;29;20712;-85
2022/09/14 07:37:32;;;;;;;4.90;4.50;;;;;;;22.22;89.26;98520.09;4925257;29;20706;-84
2022/09/14 07:39:58;;;;;;;5.40;4.90;;;;;;;22.33;86.21;98524.09;4939664;29;20252;-84
2022/09/14 07:42:25;;;;;;;5.30;4.80;;;;;;;22.38;85.45;98517.69;4898577;29;20230;-87
2022/09/14 07:44:52;;;;;;;5.38;4.90;;;;;;;22.48;84.76;98522.81;4909730;29;20230;-89
2022/09/14 07:47:19;;;;;;;5.10;4.60;;;;;;;22.44;83.05;98519.13;4899606;29;20245;-89
2022/09/14 07:49:45;;;;;;;5.25;4.75;;;;;;;22.35;83.56;98512.84;4906694;29;20226;-89
2022/09/14 07:52:12;;;;;;;5.43;4.82;;;;;;;22.39;83.95;98517.38;4928629;29;20254;-88
2022/09/14 07:54:38;;;;;;;5.20;4.80;;;;;;;22.40;83.24;98513.50;4894490;29;20235;-88
2022/09/14 07:57:05;;;;;;;5.22;4.88;;;;;;;22.56;82.18;98513.78;4904182;29;20241;-89
2022/09/14 07:59:32;;;;;;;4.80;4.47;;;;;;;22.65;80.78;98500.13;4928762;29;20233;-89
2022/09/14 08:02:07;;;;;;;5.47;4.85;;;;;;;22.99;79.31;98497.31;4898205;29;20237;-87
2022/09/14 08:04:34;;;;;;;5.25;4.85;;;;;;;23.36;76.24;98503.06;4907897;29;20241;-87
2022/09/14 08:07:02;;;;;;;4.72;4.32;;;;;;;23.82;71.46;98497.47;4889512;29;20235;-87
2022/09/14 08:09:29;;;;;;;4.93;4.38;;;;;;;24.11;69.91;98500.13;4909829;29;20261;-87
2022/09/14 08:11:56;;;;;;;4.95;4.50;;;;;;;24.58;67.87;98501.81;4909916;29;20234;-87
2022/09/14 08:14:22;;;;;;;5.60;5.07;;;;;;;24.83;64.23;98500.69;4911239;29;20231;-87
2022/09/14 08:16:49;;;;;;;4.68;4.28;;;;;;;24.84;65.42;98503.09;4908373;29;20701;-88
2022/09/14 08:19:18;;;;;;;4.72;4.32;;;;;;;24.50;64.62;98489.78;4887073;29;20328;-90
2022/09/14 08:21:45;;;;;;;5.05;4.65;;;;;;;24.73;65.54;98493.72;4900816;29;20266;-89
2022/09/14 08:24:17;;;;;;;5.25;4.75;;;;;;;24.59;64.84;98495.19;4902749;29;20235;-91
2022/09/14 08:26:44;;;;;;;5.40;4.72;;;;;;;24.86;63.37;98491.81;4883052;29;20245;-89
2022/09/14 08:29:12;;;;;;;5.07;4.68;;;;;;;25.03;62.46;98488.88;4893847;29;20476;-89
2022/09/14 08:31:39;;;;;;;5.28;4.78;;;;;;;25.06;63.31;98493.66;4885752;29;20230;-89
2022/09/14 08:34:06;;;;;;;6.10;4.65;;;;;;;25.12;61.96;98481.34;4904058;29;20237;-89
2022/09/14 08:36:37;;;;;;;5.15;4.65;;;;;;;25.25;61.33;98480.19;4889036;29;20249;-89
2022/09/14 08:39:08;;;;;;;4.97;4.57;;;;;;;25.22;59.89;98480.09;4890468;29;20241;-89
2022/09/14 08:41:55;;;;;;;5.32;4.78;;;;;;;25.28;56.96;98465.81;4883269;29;20238;-90
2022/09/14 08:44:22;;;;;;;4.88;4.38;;;;;;;25.45;57.01;98462.03;4901193;29;20316;-89
2022/09/14 08:46:54;;;;;;;5.40;4.30;;;;;;;25.65;56.69;98466.59;4896793;29;20297;-89
2022/09/14 08:49:39;;;;;;;5.18;4.78;;;;;;;25.90;55.18;98472.03;4909508;29;20239;-90
2022/09/14 08:52:12;;;;;;;5.15;4.75;;;;;;;26.01;53.64;98473.91;4921157;29;20318;-91
2022/09/14 08:54:39;;;;;;;6.47;4.57;;;;;;;25.38;55.93;98483.75;4924116;29;20229;-89
2022/09/14 08:57:36;;;;;;;6.28;4.55;;;;;;;25.67;55.10;98475.25;4921038;29;20241;-89
2022/09/14 09:00:13;;;;;;;10.35;4.60;;;;;;;26.02;54.22;98481.00;4913868;29;20711;-88
2022/09/14 09:03:06;;;;;;;13.75;5.30;;;;;;;26.09;53.12;98477.66;4910717;29;20232;-90
2022/09/14 09:05:43;;;;;;;15.65;4.75;;;;;;;26.51;51.11;98467.84;4897219;29;20310;-89
2022/09/14 09:08:38;;;;;;;8.73;4.43;;;;;;;26.76;50.96;98465.75;4922258;29;20243;-89
2022/09/14 09:11:12;;;;;;;8.75;5.10;;;;;;;26.68;50.73;98473.03;4917412;29;20325;-91
2022/09/14 09:13:40;;;;;;;5.45;4.82;;;;;;;26.91;51.49;98472.44;4926689;29;20244;-90
2022/09/14 09:16:09;;;;;;;4.78;4.20;;;;;;;27.32;50.87;98463.63;4917431;29;20281;-90
2022/09/14 09:18:46;;;;;;;6.85;4.97;;;;;;;26.83;51.99;98471.44;4919530;29;20955;-90
2022/09/14 09:21:22;;;;;;;7.55;5.55;;;;;;;25.86;54.03;98477.38;4913150;29;20261;-89
2022/09/14 09:23:49;;;;;;;7.70;5.03;;;;;;;25.77;54.62;98482.22;4917155;29;20406;-89
2022/09/14 09:26:24;;;;;;;6.47;5.28;;;;;;;25.92;55.32;98477.94;4925192;29;20242;-90
2022/09/14 09:28:52;;;;;;;7.05;5.00;;;;;;;26.25;54.48;98484.81;4900881;29;20763;-90
2022/09/14 09:31:31;;;;;;;5.53;4.93;;;;;;;25.96;55.50;98481.59;4898996;29;20203;-89
2022/09/14 09:34:27;;;;;;;5.70;5.10;;;;;;;25.99;55.78;98481.69;4899783;29;20246;-90
2022/09/14 09:37:16;;;;;;;9.38;5.55;;;;;;;26.04;55.27;98484.19;4937637;29;20243;-88
2022/09/14 09:39:43;;;;;;;7.15;5.18;;;;;;;26.44;54.17;98494.34;4919956;29;20232;-90
2022/09/14 09:42:15;;;;;;;5.35;4.88;;;;;;;26.03;54.76;98485.34;4911558;29;20237;-90
2022/09/14 09:45:00;;;;;;;6.03;4.60;;;;;;;25.89;54.87;98490.44;4892454;29;20368;-89
2022/09/14 09:47:38;;;;;;;5.13;4.72;;;;;;;24.83;57.39;98487.81;4916674;29;20241;-91
2022/09/14 09:50:18;;;;;;;5.07;4.57;;;;;;;25.32;56.54;98490.59;4912441;29;20339;-90
2022/09/14 09:52:57;;;;;;;4.13;3.83;;;;;;;25.35;56.20;98493.44;4918635;29;20235;-90
2022/09/14 09:55:37;;;;;;;4.22;3.75;;;;;;;25.35;55.56;98495.38;4882286;29;20270;-90
2022/09/14 09:58:36;;;;;;;4.65;4.32;;;;;;;25.46;55.54;98484.75;4887265;29;20242;-89
2022/09/14 10:01:06;;;;;;;4.70;4.30;;;;;;;25.50;55.57;98491.16;4890048;29;20229;-90
2022/09/14 10:03:39;;;;;;;4.07;3.78;;;;;;;25.62;56.44;98491.94;4910519;29;20323;-90
2022/09/14 10:06:11;;;;;;;4.43;4.07;;;;;;;25.80;54.16;98498.78;4892230;29;20251;-90
2022/09/14 10:08:42;;;;;;;5.07;4.43;;;;;;;25.22;54.73;98507.50;4904345;29;20242;-90
2022/09/14 10:11:36;;;;;;;5.72;4.55;;;;;;;25.40;54.81;98511.59;4882862;29;20237;-91
2022/09/14 10:14:04;;;;;;;5.03;4.63;;;;;;;25.53;55.38;98528.84;4872623;29;20964;-91
2022/09/14 10:16:40;;;;;;;4.20;3.80;;;;;;;25.70;54.98;98545.91;4897458;29;20246;-90
2022/09/14 10:19:17;;;;;;;4.90;4.40;;;;;;;25.83;54.39;98555.72;4867288;29;20257;-91
2022/09/14 10:22:19;;;;;;;4.75;4.25;;;;;;;25.44;58.45;98556.38;4897700;29;20238;-90
2022/09/14 10:25:00;;;;;;;4.85;4.35;;;;;;;25.67;57.82;98568.53;4931002;29;20228;-90
2022/09/14 10:27:51;;;;;;;5.60;4.50;;;;;;;25.67;57.14;98554.81;4910499;29;20324;-91
2022/09/14 10:30:20;;;;;;;4.82;4.38;;;;;;;25.67;55.95;98552.06;4904373;29;20258;-90
2022/09/14 10:33:12;;;;;;;6.60;5.85;;;;;;;25.55;54.85;98541.13;4894765;29;20233;-91
2022/09/14 10:36:10;;;;;;;8.27;7.43;;;;;;;25.32;56.10;98527.03;4904749;29;20246;-90
2022/09/14 10:38:54;;;;;;;6.45;5.85;;;;;;;25.45;56.44;98514.13;4907280;29;20237;-90
2022/09/14 10:41:35;;;;;;;5.72;5.22;;;;;;;25.19;58.62;98510.94;4885358;29;20234;-91
2022/09/14 10:44:27;;;;;;;7.05;4.75;;;;;;;25.01;60.68;98515.03;4893504;29;20244;-91
2022/09/14 10:47:09;;;;;;;6.63;4.50;;;;;;;24.70;62.20;98501.81;4900882;29;20244;-91
2022/09/14 10:50:01;;;;;;;6.03;4.65;;;;;;;24.45;63.98;98507.22;4892255;29;20765;-90
2022/09/14 10:52:34;;;;;;;4.97;4.50;;;;;;;24.41;65.49;98500.03;4899054;29;20271;-91
2022/09/14 10:55:01;;;;;;;5.57;4.32;;;;;;;24.92;62.94;98515.91;4889081;29;20237;-90
2022/09/14 10:57:33;;;;;;;5.00;4.50;;;;;;;25.20;60.70;98505.09;4933879;29;20236;-90
2022/09/14 11:00:11;;;;;;;5.30;4.47;;;;;;;25.20;58.76;98505.09;4889115;29;20234;-90
2022/09/14 11:02:56;;;;;;;4.50;4.10;;;;;;;24.95;60.06;98498.81;4887812;29;20238;-90
2022/09/14 11:05:45;;;;;;;5.72;4.40;;;;;;;25.01;60.08;98491.16;4877413;29;20247;-91
2022/09/14 11:08:45;;;;;;;4.78;4.35;;;;;;;24.59;63.46;98495.97;4888629;29;20226;-90
2022/09/14 11:11:31;;;;;;;6.00;4.32;;;;;;;24.79;62.37;98483.34;4915088;29;20238;-90
2022/09/14 11:14:12;;;;;;;5.82;4.25;;;;;;;24.82;63.02;98474.47;4899036;29;20244;-90
2022/09/14 11:16:54;;;;;;;6.40;4.25;;;;;;;24.76;63.97;98465.66;4938339;29;20735;-91
2022/09/14 11:19:55;;;;;;;11.85;4.63;;;;;;;24.75;64.90;98476.94;4905369;29;20318;-91
2022/09/14 11:22:39;;;;;;;11.55;5.90;;;;;;;24.75;64.12;98477.75;4921681;29;20236;-91
2022/09/14 11:25:16;;;;;;;6.85;6.13;;;;;;;24.70;63.92;98468.97;4890605;29;20233;-91
2022/09/14 11:27:49;;;;;;;7.47;5.82;;;;;;;24.64;64.26;98475.78;4892107;29;20320;-91
2022/09/14 11:30:16;;;;;;;8.35;6.07;;;;;;;24.67;65.32;98484.13;4886412;29;20235;-90
2022/09/14 11:32:56;;;;;;;7.05;6.38;;;;;;;24.65;63.10;98469.16;4903332;29;20502;-89
2022/09/14 11:35:27;;;;;;;6.30;5.63;;;;;;;24.52;63.85;98465.63;4869205;29;20650;-90
2022/09/14 11:38:22;;;;;;;6.10;5.50;;;;;;;24.36;65.36;98462.72;4893273;29;20740;-90
2022/09/14 11:40:54;;;;;;;8.13;5.88;;;;;;;24.27;64.47;98445.59;4905739;29;20237;-91
2022/09/14 11:43:30;;;;;;;9.52;5.80;;;;;;;24.17;65.57;98440.53;4903663;29;20286;-91
2022/09/14 11:46:11;;;;;;;8.98;5.68;;;;;;;24.39;63.97;98433.88;4898067;29;20288;-90
2022/09/14 11:48:50;;;;;;;11.63;5.43;;;;;;;24.58;62.38;98422.41;4888113;29;20327;-90
2022/09/14 11:51:22;;;;;;;11.65;5.35;;;;;;;24.60;62.34;98422.84;4925323;29;20243;-91